East Middlebury, Vermont
Current Conditions -  °F | °C
As of 1:35 PM on Tuesday 27 Jan 2015 (Local Time) from K6B0 Reporting Station
Light Snow Light Snow  
Wind Chill: -23°   Ceiling: 900
Heat Index: -14°   Visibility: 0.75mi
Dew Point: -17°   Wind: 14mph
Humidity: 80%   Direction: 360°N
Pressure: 29.84"   Gusts: 20mph
Location:  43.97°N, 73.11°W
Report Text: K6B0 271835Z AUTO 36012G17KT 3/4SM -SN OVC009 M14/M17 A2984 RMK AO2 LTG DSNT E T11401167
Loading
Personal Weather Stations






























Interactive Weather Map New forecast layout! Learn more

10-Day Weather Forecast

Advertisements
Track Severe Weather on mobile